sensor_id;sensor_type;location;lat;lon;timestamp;P1;durP1;ratioP1;P2;durP2;ratioP2
45548;SDS011;31270;48.328;10.096;2022-10-18T00:00:51;16.60;;;12.47;;
45548;SDS011;31270;48.328;10.096;2022-10-18T00:03:17;18.60;;;13.23;;
45548;SDS011;31270;48.328;10.096;2022-10-18T00:05:42;20.47;;;12.20;;
45548;SDS011;31270;48.328;10.096;2022-10-18T00:08:08;14.73;;;11.77;;
45548;SDS011;31270;48.328;10.096;2022-10-18T00:10:33;14.63;;;10.93;;
45548;SDS011;31270;48.328;10.096;2022-10-18T00:12:59;14.80;;;11.57;;
45548;SDS011;31270;48.328;10.096;2022-10-18T00:15:25;19.63;;;12.07;;
45548;SDS011;31270;48.328;10.096;2022-10-18T00:17:50;15.70;;;11.17;;
45548;SDS011;31270;48.328;10.096;2022-10-18T00:20:16;16.70;;;10.90;;
45548;SDS011;31270;48.328;10.096;2022-10-18T00:22:41;14.20;;;10.77;;
45548;SDS011;31270;48.328;10.096;2022-10-18T00:25:07;21.30;;;10.97;;
45548;SDS011;31270;48.328;10.096;2022-10-18T00:27:33;13.20;;;10.83;;
45548;SDS011;31270;48.328;10.096;2022-10-18T00:29:59;20.30;;;11.60;;
45548;SDS011;31270;48.328;10.096;2022-10-18T00:32:25;19.03;;;10.73;;
45548;SDS011;31270;48.328;10.096;2022-10-18T00:34:51;16.47;;;10.70;;
45548;SDS011;31270;48.328;10.096;2022-10-18T00:37:18;13.37;;;10.37;;
45548;SDS011;31270;48.328;10.096;2022-10-18T00:39:44;15.30;;;11.13;;
45548;SDS011;31270;48.328;10.096;2022-10-18T00:42:10;13.20;;;10.07;;
45548;SDS011;31270;48.328;10.096;2022-10-18T00:47:09;14.97;;;10.50;;
45548;SDS011;31270;48.328;10.096;2022-10-18T00:49:41;15.43;;;10.77;;
45548;SDS011;31270;48.328;10.096;2022-10-18T00:52:23;15.43;;;11.00;;
45548;SDS011;31270;48.328;10.096;2022-10-18T00:54:53;14.37;;;10.13;;
45548;SDS011;31270;48.328;10.096;2022-10-18T00:57:21;14.97;;;10.47;;
45548;SDS011;31270;48.328;10.096;2022-10-18T00:59:47;13.53;;;10.03;;
45548;SDS011;31270;48.328;10.096;2022-10-18T01:02:13;15.57;;;10.50;;
45548;SDS011;31270;48.328;10.096;2022-10-18T01:04:42;17.90;;;10.83;;
45548;SDS011;31270;48.328;10.096;2022-10-18T01:07:33;11.77;;;10.53;;
45548;SDS011;31270;48.328;10.096;2022-10-18T01:13:05;13.30;;;10.43;;
45548;SDS011;31270;48.328;10.096;2022-10-18T01:30:19;14.60;;;10.30;;
45548;SDS011;31270;48.328;10.096;2022-10-18T01:33:12;12.13;;;10.37;;
45548;SDS011;31270;48.328;10.096;2022-10-18T01:38:32;16.67;;;10.67;;
45548;SDS011;31270;48.328;10.096;2022-10-18T01:40:59;13.63;;;10.67;;
45548;SDS011;31270;48.328;10.096;2022-10-18T01:43:27;16.83;;;10.80;;
45548;SDS011;31270;48.328;10.096;2022-10-18T01:45:56;13.63;;;10.67;;
45548;SDS011;31270;48.328;10.096;2022-10-18T01:48:23;15.33;;;10.70;;
45548;SDS011;31270;48.328;10.096;2022-10-18T01:50:50;15.67;;;10.57;;
45548;SDS011;31270;48.328;10.096;2022-10-18T01:53:20;17.23;;;10.90;;
45548;SDS011;31270;48.328;10.096;2022-10-18T01:55:53;14.07;;;11.70;;
45548;SDS011;31270;48.328;10.096;2022-10-18T01:58:37;15.20;;;11.30;;
45548;SDS011;31270;48.328;10.096;2022-10-18T02:01:12;14.97;;;11.10;;
45548;SDS011;31270;48.328;10.096;2022-10-18T02:03:47;14.67;;;11.03;;
45548;SDS011;31270;48.328;10.096;2022-10-18T02:06:20;14.67;;;10.70;;
45548;SDS011;31270;48.328;10.096;2022-10-18T02:08:59;13.90;;;11.33;;
45548;SDS011;31270;48.328;10.096;2022-10-18T02:11:40;14.37;;;11.07;;
45548;SDS011;31270;48.328;10.096;2022-10-18T02:14:10;16.23;;;11.17;;
45548;SDS011;31270;48.328;10.096;2022-10-18T02:16:45;14.37;;;11.20;;
45548;SDS011;31270;48.328;10.096;2022-10-18T02:19:25;14.63;;;11.07;;
45548;SDS011;31270;48.328;10.096;2022-10-18T02:21:54;13.50;;;10.53;;
45548;SDS011;31270;48.328;10.096;2022-10-18T02:24:22;17.37;;;11.57;;
45548;SDS011;31270;48.328;10.096;2022-10-18T02:26:51;20.37;;;12.17;;
45548;SDS011;31270;48.328;10.096;2022-10-18T02:29:17;17.47;;;11.40;;
45548;SDS011;31270;48.328;10.096;2022-10-18T02:34:16;18.73;;;11.27;;
45548;SDS011;31270;48.328;10.096;2022-10-18T02:36:57;17.00;;;11.57;;
45548;SDS011;31270;48.328;10.096;2022-10-18T02:39:44;16.00;;;11.20;;
45548;SDS011;31270;48.328;10.096;2022-10-18T02:42:12;16.33;;;12.17;;
45548;SDS011;31270;48.328;10.096;2022-10-18T02:44:39;16.83;;;12.17;;
45548;SDS011;31270;48.328;10.096;2022-10-18T02:47:06;21.13;;;12.43;;
45548;SDS011;31270;48.328;10.096;2022-10-18T02:49:32;17.07;;;12.17;;
45548;SDS011;31270;48.328;10.096;2022-10-18T02:51:58;16.87;;;12.37;;
45548;SDS011;31270;48.328;10.096;2022-10-18T02:54:24;15.93;;;12.50;;
45548;SDS011;31270;48.328;10.096;2022-10-18T02:56:49;16.97;;;12.07;;
45548;SDS011;31270;48.328;10.096;2022-10-18T02:59:15;21.67;;;13.20;;
45548;SDS011;31270;48.328;10.096;2022-10-18T03:01:41;17.47;;;13.20;;
45548;SDS011;31270;48.328;10.096;2022-10-18T03:04:07;17.63;;;12.67;;
45548;SDS011;31270;48.328;10.096;2022-10-18T03:06:33;20.83;;;12.43;;
45548;SDS011;31270;48.328;10.096;2022-10-18T03:09:00;18.07;;;12.43;;
45548;SDS011;31270;48.328;10.096;2022-10-18T03:11:27;15.70;;;12.13;;
45548;SDS011;31270;48.328;10.096;2022-10-18T03:13:52;18.77;;;13.40;;
45548;SDS011;31270;48.328;10.096;2022-10-18T03:16:18;19.23;;;13.00;;
45548;SDS011;31270;48.328;10.096;2022-10-18T03:18:43;20.60;;;13.63;;
45548;SDS011;31270;48.328;10.096;2022-10-18T03:21:09;19.47;;;14.20;;
45548;SDS011;31270;48.328;10.096;2022-10-18T03:23:35;20.80;;;14.57;;
45548;SDS011;31270;48.328;10.096;2022-10-18T03:26:00;19.80;;;15.20;;
45548;SDS011;31270;48.328;10.096;2022-10-18T03:28:26;20.93;;;14.70;;
45548;SDS011;31270;48.328;10.096;2022-10-18T03:30:52;22.73;;;17.13;;
45548;SDS011;31270;48.328;10.096;2022-10-18T03:33:18;20.50;;;14.80;;
45548;SDS011;31270;48.328;10.096;2022-10-18T03:35:43;23.60;;;15.37;;
45548;SDS011;31270;48.328;10.096;2022-10-18T03:38:09;18.87;;;15.30;;
45548;SDS011;31270;48.328;10.096;2022-10-18T03:40:35;18.57;;;14.17;;
45548;SDS011;31270;48.328;10.096;2022-10-18T03:43:00;20.10;;;13.63;;
45548;SDS011;31270;48.328;10.096;2022-10-18T03:45:26;20.60;;;14.93;;
45548;SDS011;31270;48.328;10.096;2022-10-18T03:47:52;22.43;;;14.23;;
45548;SDS011;31270;48.328;10.096;2022-10-18T03:50:17;16.53;;;13.77;;
45548;SDS011;31270;48.328;10.096;2022-10-18T03:52:43;22.43;;;13.83;;
45548;SDS011;31270;48.328;10.096;2022-10-18T03:55:12;19.90;;;13.77;;
45548;SDS011;31270;48.328;10.096;2022-10-18T03:57:37;18.80;;;13.77;;
45548;SDS011;31270;48.328;10.096;2022-10-18T04:00:03;18.73;;;13.63;;
45548;SDS011;31270;48.328;10.096;2022-10-18T04:02:30;18.67;;;12.90;;
45548;SDS011;31270;48.328;10.096;2022-10-18T04:04:56;18.37;;;13.13;;
45548;SDS011;31270;48.328;10.096;2022-10-18T04:07:23;20.43;;;13.63;;
45548;SDS011;31270;48.328;10.096;2022-10-18T04:09:48;19.07;;;13.47;;
45548;SDS011;31270;48.328;10.096;2022-10-18T04:12:14;15.97;;;12.67;;
45548;SDS011;31270;48.328;10.096;2022-10-18T04:14:40;18.77;;;13.63;;
45548;SDS011;31270;48.328;10.096;2022-10-18T04:17:05;20.80;;;13.70;;
45548;SDS011;31270;48.328;10.096;2022-10-18T04:19:31;18.83;;;12.97;;
45548;SDS011;31270;48.328;10.096;2022-10-18T04:21:56;19.47;;;12.97;;
45548;SDS011;31270;48.328;10.096;2022-10-18T04:24:23;19.23;;;12.70;;
45548;SDS011;31270;48.328;10.096;2022-10-18T04:26:49;16.97;;;12.97;;
45548;SDS011;31270;48.328;10.096;2022-10-18T04:29:14;16.37;;;13.53;;
45548;SDS011;31270;48.328;10.096;2022-10-18T04:31:40;17.90;;;12.77;;
45548;SDS011;31270;48.328;10.096;2022-10-18T04:34:06;16.67;;;13.27;;
45548;SDS011;31270;48.328;10.096;2022-10-18T04:36:31;20.80;;;13.50;;
45548;SDS011;31270;48.328;10.096;2022-10-18T04:38:57;18.50;;;12.47;;
45548;SDS011;31270;48.328;10.096;2022-10-18T04:41:22;20.27;;;12.20;;
45548;SDS011;31270;48.328;10.096;2022-10-18T04:43:48;18.20;;;12.33;;
45548;SDS011;31270;48.328;10.096;2022-10-18T04:46:14;17.93;;;12.13;;
45548;SDS011;31270;48.328;10.096;2022-10-18T04:48:43;14.63;;;12.50;;
45548;SDS011;31270;48.328;10.096;2022-10-18T04:51:08;20.87;;;12.43;;
45548;SDS011;31270;48.328;10.096;2022-10-18T04:53:34;18.67;;;11.60;;
45548;SDS011;31270;48.328;10.096;2022-10-18T04:56:00;15.97;;;12.47;;
45548;SDS011;31270;48.328;10.096;2022-10-18T04:58:25;15.27;;;12.43;;
45548;SDS011;31270;48.328;10.096;2022-10-18T05:00:51;15.40;;;12.03;;
45548;SDS011;31270;48.328;10.096;2022-10-18T05:03:18;15.73;;;12.10;;
45548;SDS011;31270;48.328;10.096;2022-10-18T05:05:43;18.67;;;11.73;;
45548;SDS011;31270;48.328;10.096;2022-10-18T05:08:10;16.87;;;11.87;;
45548;SDS011;31270;48.328;10.096;2022-10-18T05:10:36;14.37;;;11.47;;
45548;SDS011;31270;48.328;10.096;2022-10-18T05:13:02;16.97;;;11.73;;
45548;SDS011;31270;48.328;10.096;2022-10-18T05:15:28;20.10;;;11.33;;
45548;SDS011;31270;48.328;10.096;2022-10-18T05:17:53;16.93;;;11.50;;
45548;SDS011;31270;48.328;10.096;2022-10-18T05:20:19;18.17;;;11.10;;
45548;SDS011;31270;48.328;10.096;2022-10-18T05:22:45;12.77;;;10.67;;
45548;SDS011;31270;48.328;10.096;2022-10-18T05:25:10;14.87;;;11.10;;
45548;SDS011;31270;48.328;10.096;2022-10-18T05:27:36;15.20;;;10.43;;
45548;SDS011;31270;48.328;10.096;2022-10-18T05:30:02;13.37;;;10.50;;
45548;SDS011;31270;48.328;10.096;2022-10-18T05:32:28;14.80;;;10.67;;
45548;SDS011;31270;48.328;10.096;2022-10-18T05:34:53;13.70;;;10.57;;
45548;SDS011;31270;48.328;10.096;2022-10-18T05:37:19;14.47;;;11.57;;
45548;SDS011;31270;48.328;10.096;2022-10-18T05:39:45;14.10;;;11.13;;
45548;SDS011;31270;48.328;10.096;2022-10-18T05:42:11;15.30;;;11.67;;
45548;SDS011;31270;48.328;10.096;2022-10-18T05:44:36;20.30;;;11.87;;
45548;SDS011;31270;48.328;10.096;2022-10-18T05:47:02;17.03;;;11.27;;
45548;SDS011;31270;48.328;10.096;2022-10-18T05:49:28;16.03;;;11.40;;
45548;SDS011;31270;48.328;10.096;2022-10-18T05:51:54;15.07;;;11.17;;
45548;SDS011;31270;48.328;10.096;2022-10-18T05:54:19;16.57;;;12.37;;
45548;SDS011;31270;48.328;10.096;2022-10-18T05:56:45;17.50;;;11.73;;
45548;SDS011;31270;48.328;10.096;2022-10-18T05:59:11;16.10;;;11.70;;
45548;SDS011;31270;48.328;10.096;2022-10-18T06:01:37;16.50;;;12.53;;
45548;SDS011;31270;48.328;10.096;2022-10-18T06:04:04;18.37;;;12.10;;
45548;SDS011;31270;48.328;10.096;2022-10-18T06:06:30;20.00;;;12.43;;
45548;SDS011;31270;48.328;10.096;2022-10-18T06:08:56;16.87;;;13.13;;
45548;SDS011;31270;48.328;10.096;2022-10-18T06:11:22;21.67;;;13.77;;
45548;SDS011;31270;48.328;10.096;2022-10-18T06:13:49;19.23;;;12.53;;
45548;SDS011;31270;48.328;10.096;2022-10-18T06:16:16;21.67;;;14.17;;
45548;SDS011;31270;48.328;10.096;2022-10-18T06:18:50;20.20;;;14.03;;
45548;SDS011;31270;48.328;10.096;2022-10-18T06:21:18;19.27;;;13.97;;
45548;SDS011;31270;48.328;10.096;2022-10-18T06:23:50;20.77;;;14.63;;
45548;SDS011;31270;48.328;10.096;2022-10-18T06:26:17;26.03;;;15.67;;
45548;SDS011;31270;48.328;10.096;2022-10-18T06:28:43;18.50;;;14.90;;
45548;SDS011;31270;48.328;10.096;2022-10-18T06:31:09;18.43;;;14.40;;
45548;SDS011;31270;48.328;10.096;2022-10-18T06:33:36;21.47;;;15.40;;
45548;SDS011;31270;48.328;10.096;2022-10-18T06:36:03;22.20;;;14.77;;
45548;SDS011;31270;48.328;10.096;2022-10-18T06:38:31;24.07;;;14.90;;
45548;SDS011;31270;48.328;10.096;2022-10-18T06:40:58;19.90;;;14.93;;
45548;SDS011;31270;48.328;10.096;2022-10-18T06:43:24;17.73;;;13.77;;
45548;SDS011;31270;48.328;10.096;2022-10-18T06:45:50;25.70;;;13.97;;
45548;SDS011;31270;48.328;10.096;2022-10-18T06:48:16;23.17;;;14.63;;
45548;SDS011;31270;48.328;10.096;2022-10-18T06:50:49;22.23;;;14.93;;
45548;SDS011;31270;48.328;10.096;2022-10-18T06:53:19;24.23;;;14.90;;
45548;SDS011;31270;48.328;10.096;2022-10-18T06:55:45;18.57;;;14.93;;
45548;SDS011;31270;48.328;10.096;2022-10-18T06:58:11;24.60;;;14.03;;
45548;SDS011;31270;48.328;10.096;2022-10-18T07:00:36;17.00;;;13.53;;
45548;SDS011;31270;48.328;10.096;2022-10-18T07:03:03;17.93;;;13.60;;
45548;SDS011;31270;48.328;10.096;2022-10-18T07:05:29;17.50;;;13.43;;
45548;SDS011;31270;48.328;10.096;2022-10-18T07:07:56;20.70;;;13.93;;
45548;SDS011;31270;48.328;10.096;2022-10-18T07:10:22;22.30;;;13.73;;
45548;SDS011;31270;48.328;10.096;2022-10-18T07:12:48;21.70;;;14.40;;
45548;SDS011;31270;48.328;10.096;2022-10-18T07:15:14;20.50;;;13.33;;
45548;SDS011;31270;48.328;10.096;2022-10-18T07:17:42;18.63;;;13.40;;
45548;SDS011;31270;48.328;10.096;2022-10-18T07:20:11;21.77;;;13.63;;
45548;SDS011;31270;48.328;10.096;2022-10-18T07:22:36;22.67;;;14.47;;
45548;SDS011;31270;48.328;10.096;2022-10-18T07:25:04;21.23;;;14.73;;
45548;SDS011;31270;48.328;10.096;2022-10-18T07:27:34;21.57;;;14.07;;
45548;SDS011;31270;48.328;10.096;2022-10-18T07:30:04;21.60;;;14.97;;
45548;SDS011;31270;48.328;10.096;2022-10-18T07:32:31;20.70;;;13.50;;
45548;SDS011;31270;48.328;10.096;2022-10-18T07:34:57;18.87;;;13.70;;
45548;SDS011;31270;48.328;10.096;2022-10-18T07:37:22;21.30;;;13.57;;
45548;SDS011;31270;48.328;10.096;2022-10-18T07:39:48;23.93;;;14.30;;
45548;SDS011;31270;48.328;10.096;2022-10-18T07:42:14;16.90;;;13.20;;
45548;SDS011;31270;48.328;10.096;2022-10-18T07:44:39;20.13;;;13.87;;
45548;SDS011;31270;48.328;10.096;2022-10-18T07:47:05;18.85;;;12.70;;
45548;SDS011;31270;48.328;10.096;2022-10-18T07:49:31;18.02;;;12.82;;
45548;SDS011;31270;48.328;10.096;2022-10-18T07:51:56;19.80;;;13.63;;
45548;SDS011;31270;48.328;10.096;2022-10-18T07:54:22;18.33;;;12.43;;
45548;SDS011;31270;48.328;10.096;2022-10-18T07:56:48;17.70;;;12.90;;
45548;SDS011;31270;48.328;10.096;2022-10-18T07:59:13;19.17;;;14.32;;
45548;SDS011;31270;48.328;10.096;2022-10-18T08:01:39;19.80;;;13.07;;
45548;SDS011;31270;48.328;10.096;2022-10-18T08:04:05;18.13;;;13.63;;
45548;SDS011;31270;48.328;10.096;2022-10-18T08:06:32;20.92;;;12.90;;
45548;SDS011;31270;48.328;10.096;2022-10-18T08:08:58;17.17;;;12.57;;
45548;SDS011;31270;48.328;10.096;2022-10-18T08:11:23;19.73;;;13.40;;
45548;SDS011;31270;48.328;10.096;2022-10-18T08:13:50;18.67;;;13.18;;
45548;SDS011;31270;48.328;10.096;2022-10-18T08:16:18;22.27;;;13.40;;
45548;SDS011;31270;48.328;10.096;2022-10-18T08:18:46;20.02;;;12.10;;
45548;SDS011;31270;48.328;10.096;2022-10-18T08:21:12;19.15;;;12.55;;
45548;SDS011;31270;48.328;10.096;2022-10-18T08:23:39;19.25;;;12.00;;
45548;SDS011;31270;48.328;10.096;2022-10-18T08:26:09;17.27;;;11.30;;
45548;SDS011;31270;48.328;10.096;2022-10-18T08:28:37;21.27;;;11.48;;
45548;SDS011;31270;48.328;10.096;2022-10-18T08:31:03;14.07;;;10.30;;
45548;SDS011;31270;48.328;10.096;2022-10-18T08:33:31;19.20;;;10.90;;
45548;SDS011;31270;48.328;10.096;2022-10-18T08:35:59;15.02;;;10.05;;
45548;SDS011;31270;48.328;10.096;2022-10-18T08:38:31;10.85;;;8.80;;
45548;SDS011;31270;48.328;10.096;2022-10-18T08:40:59;13.90;;;9.15;;
45548;SDS011;31270;48.328;10.096;2022-10-18T08:43:37;14.07;;;9.00;;
45548;SDS011;31270;48.328;10.096;2022-10-18T08:46:11;10.48;;;8.57;;
45548;SDS011;31270;48.328;10.096;2022-10-18T08:48:38;10.82;;;8.10;;
45548;SDS011;31270;48.328;10.096;2022-10-18T08:51:31;11.43;;;7.93;;
45548;SDS011;31270;48.328;10.096;2022-10-18T08:54:10;13.40;;;8.68;;
45548;SDS011;31270;48.328;10.096;2022-10-18T08:56:39;11.43;;;7.75;;
45548;SDS011;31270;48.328;10.096;2022-10-18T08:59:11;12.80;;;7.88;;
45548;SDS011;31270;48.328;10.096;2022-10-18T09:02:00;12.13;;;8.00;;
45548;SDS011;31270;48.328;10.096;2022-10-18T09:07:49;10.52;;;7.20;;
45548;SDS011;31270;48.328;10.096;2022-10-18T09:16:02;11.50;;;6.88;;
45548;SDS011;31270;48.328;10.096;2022-10-18T09:21:19;9.63;;;6.32;;
45548;SDS011;31270;48.328;10.096;2022-10-18T09:26:45;9.70;;;5.97;;
45548;SDS011;31270;48.328;10.096;2022-10-18T09:29:23;9.63;;;6.78;;
45548;SDS011;31270;48.328;10.096;2022-10-18T09:37:58;10.68;;;6.20;;
45548;SDS011;31270;48.328;10.096;2022-10-18T09:40:28;8.48;;;6.57;;
45548;SDS011;31270;48.328;10.096;2022-10-18T09:42:58;12.07;;;6.20;;
45548;SDS011;31270;48.328;10.096;2022-10-18T09:45:38;7.93;;;5.88;;
45548;SDS011;31270;48.328;10.096;2022-10-18T09:48:06;12.25;;;6.97;;
45548;SDS011;31270;48.328;10.096;2022-10-18T09:50:57;9.23;;;6.10;;
45548;SDS011;31270;48.328;10.096;2022-10-18T09:56:21;9.23;;;5.85;;
45548;SDS011;31270;48.328;10.096;2022-10-18T09:58:51;11.35;;;5.75;;
45548;SDS011;31270;48.328;10.096;2022-10-18T10:01:19;8.52;;;5.95;;
45548;SDS011;31270;48.328;10.096;2022-10-18T10:03:47;8.20;;;5.07;;
45548;SDS011;31270;48.328;10.096;2022-10-18T10:06:14;9.10;;;5.30;;
45548;SDS011;31270;48.328;10.096;2022-10-18T10:08:42;8.30;;;6.13;;
45548;SDS011;31270;48.328;10.096;2022-10-18T10:11:27;9.00;;;5.85;;
45548;SDS011;31270;48.328;10.096;2022-10-18T10:14:15;9.07;;;5.65;;
45548;SDS011;31270;48.328;10.096;2022-10-18T10:19:24;9.88;;;5.63;;
45548;SDS011;31270;48.328;10.096;2022-10-18T10:21:54;8.23;;;5.30;;
45548;SDS011;31270;48.328;10.096;2022-10-18T10:24:39;6.85;;;5.15;;
45548;SDS011;31270;48.328;10.096;2022-10-18T10:27:12;7.25;;;5.63;;
45548;SDS011;31270;48.328;10.096;2022-10-18T10:32:14;6.80;;;4.80;;
45548;SDS011;31270;48.328;10.096;2022-10-18T10:34:41;7.95;;;5.43;;
45548;SDS011;31270;48.328;10.096;2022-10-18T10:42:31;7.80;;;4.68;;
45548;SDS011;31270;48.328;10.096;2022-10-18T10:44:57;9.90;;;4.93;;
45548;SDS011;31270;48.328;10.096;2022-10-18T10:47:32;9.73;;;4.57;;
45548;SDS011;31270;48.328;10.096;2022-10-18T10:50:07;7.57;;;4.47;;
45548;SDS011;31270;48.328;10.096;2022-10-18T10:52:36;6.55;;;4.70;;
45548;SDS011;31270;48.328;10.096;2022-10-18T10:55:02;6.55;;;4.32;;
45548;SDS011;31270;48.328;10.096;2022-10-18T10:57:30;7.63;;;4.45;;
45548;SDS011;31270;48.328;10.096;2022-10-18T10:59:56;7.68;;;4.07;;
45548;SDS011;31270;48.328;10.096;2022-10-18T11:02:30;6.30;;;4.50;;
45548;SDS011;31270;48.328;10.096;2022-10-18T11:07:54;8.55;;;4.25;;
45548;SDS011;31270;48.328;10.096;2022-10-18T11:10:22;5.93;;;4.15;;
45548;SDS011;31270;48.328;10.096;2022-10-18T11:12:54;4.22;;;3.83;;
45548;SDS011;31270;48.328;10.096;2022-10-18T11:15:48;4.78;;;3.90;;
45548;SDS011;31270;48.328;10.096;2022-10-18T11:18:29;5.57;;;4.10;;
45548;SDS011;31270;48.328;10.096;2022-10-18T11:21:11;7.47;;;3.80;;
45548;SDS011;31270;48.328;10.096;2022-10-18T11:23:47;4.80;;;4.22;;
45548;SDS011;31270;48.328;10.096;2022-10-18T11:26:34;5.28;;;3.80;;
45548;SDS011;31270;48.328;10.096;2022-10-18T11:32:02;5.47;;;3.45;;
45548;SDS011;31270;48.328;10.096;2022-10-18T11:45:56;9.43;;;3.53;;
45548;SDS011;31270;48.328;10.096;2022-10-18T11:48:39;8.13;;;3.38;;
45548;SDS011;31270;48.328;10.096;2022-10-18T11:51:29;4.30;;;3.42;;
45548;SDS011;31270;48.328;10.096;2022-10-18T11:57:08;8.48;;;3.63;;
45548;SDS011;31270;48.328;10.096;2022-10-18T12:05:04;8.60;;;4.22;;
45548;SDS011;31270;48.328;10.096;2022-10-18T12:07:37;9.85;;;3.88;;
45548;SDS011;31270;48.328;10.096;2022-10-18T12:10:14;9.18;;;3.60;;
45548;SDS011;31270;48.328;10.096;2022-10-18T12:12:49;3.70;;;3.40;;
45548;SDS011;31270;48.328;10.096;2022-10-18T12:15:21;7.97;;;3.45;;
45548;SDS011;31270;48.328;10.096;2022-10-18T12:17:51;7.20;;;3.30;;
45548;SDS011;31270;48.328;10.096;2022-10-18T12:20:21;5.97;;;3.35;;
45548;SDS011;31270;48.328;10.096;2022-10-18T12:23:54;5.40;;;3.28;;
45548;SDS011;31270;48.328;10.096;2022-10-18T12:25:54;7.50;;;3.55;;
45548;SDS011;31270;48.328;10.096;2022-10-18T12:28:37;6.80;;;3.38;;
45548;SDS011;31270;48.328;10.096;2022-10-18T12:39:41;8.55;;;3.40;;
45548;SDS011;31270;48.328;10.096;2022-10-18T12:42:22;7.93;;;3.17;;
45548;SDS011;31270;48.328;10.096;2022-10-18T12:45:00;4.38;;;3.20;;
45548;SDS011;31270;48.328;10.096;2022-10-18T12:47:30;9.07;;;3.60;;
45548;SDS011;31270;48.328;10.096;2022-10-18T12:50:01;6.03;;;3.40;;
45548;SDS011;31270;48.328;10.096;2022-10-18T12:52:29;4.88;;;3.50;;
45548;SDS011;31270;48.328;10.096;2022-10-18T13:16:06;7.07;;;3.10;;
45548;SDS011;31270;48.328;10.096;2022-10-18T13:18:56;4.60;;;3.25;;
45548;SDS011;31270;48.328;10.096;2022-10-18T13:32:37;6.63;;;3.83;;
45548;SDS011;31270;48.328;10.096;2022-10-18T13:38:32;11.40;;;3.72;;
45548;SDS011;31270;48.328;10.096;2022-10-18T13:41:10;4.60;;;3.50;;
45548;SDS011;31270;48.328;10.096;2022-10-18T13:48:59;5.65;;;3.30;;
45548;SDS011;31270;48.328;10.096;2022-10-18T13:59:39;9.18;;;3.17;;
45548;SDS011;31270;48.328;10.096;2022-10-18T14:02:42;5.28;;;2.80;;
45548;SDS011;31270;48.328;10.096;2022-10-18T14:05:23;5.88;;;2.90;;
45548;SDS011;31270;48.328;10.096;2022-10-18T14:07:57;4.90;;;3.00;;
45548;SDS011;31270;48.328;10.096;2022-10-18T14:10:33;3.40;;;2.72;;
45548;SDS011;31270;48.328;10.096;2022-10-18T14:13:04;6.40;;;2.72;;
45548;SDS011;31270;48.328;10.096;2022-10-18T14:15:38;4.55;;;2.65;;
45548;SDS011;31270;48.328;10.096;2022-10-18T14:18:12;5.32;;;2.75;;
45548;SDS011;31270;48.328;10.096;2022-10-18T14:20:43;5.68;;;2.80;;
45548;SDS011;31270;48.328;10.096;2022-10-18T14:23:16;8.35;;;2.92;;
45548;SDS011;31270;48.328;10.096;2022-10-18T14:25:45;5.90;;;2.90;;
45548;SDS011;31270;48.328;10.096;2022-10-18T14:28:12;4.03;;;2.95;;
45548;SDS011;31270;48.328;10.096;2022-10-18T14:33:43;4.57;;;2.90;;
45548;SDS011;31270;48.328;10.096;2022-10-18T14:39:15;5.53;;;2.80;;
45548;SDS011;31270;48.328;10.096;2022-10-18T14:49:09;3.85;;;2.70;;
45548;SDS011;31270;48.328;10.096;2022-10-18T14:51:37;4.05;;;2.72;;
45548;SDS011;31270;48.328;10.096;2022-10-18T14:54:05;4.15;;;2.70;;
45548;SDS011;31270;48.328;10.096;2022-10-18T14:56:38;5.50;;;2.90;;
45548;SDS011;31270;48.328;10.096;2022-10-18T14:59:09;4.10;;;2.45;;
45548;SDS011;31270;48.328;10.096;2022-10-18T15:01:49;7.63;;;2.88;;
45548;SDS011;31270;48.328;10.096;2022-10-18T15:04:20;9.05;;;3.05;;
45548;SDS011;31270;48.328;10.096;2022-10-18T15:06:47;4.70;;;2.80;;
45548;SDS011;31270;48.328;10.096;2022-10-18T15:09:13;5.53;;;2.78;;
45548;SDS011;31270;48.328;10.096;2022-10-18T15:11:44;4.05;;;2.70;;
45548;SDS011;31270;48.328;10.096;2022-10-18T15:14:12;5.60;;;2.90;;
45548;SDS011;31270;48.328;10.096;2022-10-18T15:16:41;9.00;;;4.80;;
45548;SDS011;31270;48.328;10.096;2022-10-18T15:24:35;8.25;;;3.33;;
45548;SDS011;31270;48.328;10.096;2022-10-18T15:27:23;6.22;;;4.25;;
45548;SDS011;31270;48.328;10.096;2022-10-18T15:29:50;4.75;;;3.35;;
45548;SDS011;31270;48.328;10.096;2022-10-18T15:32:28;4.68;;;3.42;;
45548;SDS011;31270;48.328;10.096;2022-10-18T15:35:05;9.45;;;3.83;;
45548;SDS011;31270;48.328;10.096;2022-10-18T15:37:43;7.85;;;4.10;;
45548;SDS011;31270;48.328;10.096;2022-10-18T15:42:52;7.32;;;3.67;;
45548;SDS011;31270;48.328;10.096;2022-10-18T15:50:41;10.77;;;4.75;;
45548;SDS011;31270;48.328;10.096;2022-10-18T15:53:32;10.30;;;4.65;;
45548;SDS011;31270;48.328;10.096;2022-10-18T15:59:11;9.82;;;5.10;;
45548;SDS011;31270;48.328;10.096;2022-10-18T16:02:11;7.30;;;4.45;;
45548;SDS011;31270;48.328;10.096;2022-10-18T16:04:38;15.00;;;5.15;;
45548;SDS011;31270;48.328;10.096;2022-10-18T16:07:04;7.40;;;4.50;;
45548;SDS011;31270;48.328;10.096;2022-10-18T16:09:29;8.68;;;4.93;;
45548;SDS011;31270;48.328;10.096;2022-10-18T16:11:55;7.65;;;5.05;;
45548;SDS011;31270;48.328;10.096;2022-10-18T16:14:22;11.77;;;5.47;;
45548;SDS011;31270;48.328;10.096;2022-10-18T16:16:50;7.32;;;5.22;;
45548;SDS011;31270;48.328;10.096;2022-10-18T16:19:19;8.25;;;4.72;;
45548;SDS011;31270;48.328;10.096;2022-10-18T16:21:48;7.72;;;5.18;;
45548;SDS011;31270;48.328;10.096;2022-10-18T16:24:14;10.25;;;6.45;;
45548;SDS011;31270;48.328;10.096;2022-10-18T16:26:40;7.88;;;5.38;;
45548;SDS011;31270;48.328;10.096;2022-10-18T16:29:06;16.10;;;6.13;;
45548;SDS011;31270;48.328;10.096;2022-10-18T16:31:37;8.15;;;5.63;;
45548;SDS011;31270;48.328;10.096;2022-10-18T16:34:02;8.85;;;5.28;;
45548;SDS011;31270;48.328;10.096;2022-10-18T16:36:29;10.80;;;5.55;;
45548;SDS011;31270;48.328;10.096;2022-10-18T16:38:57;8.43;;;5.60;;
45548;SDS011;31270;48.328;10.096;2022-10-18T16:41:25;9.88;;;5.45;;
45548;SDS011;31270;48.328;10.096;2022-10-18T16:43:51;9.32;;;5.63;;
45548;SDS011;31270;48.328;10.096;2022-10-18T16:46:21;8.80;;;6.45;;
45548;SDS011;31270;48.328;10.096;2022-10-18T16:48:49;11.57;;;5.97;;
45548;SDS011;31270;48.328;10.096;2022-10-18T16:51:16;9.57;;;6.50;;
45548;SDS011;31270;48.328;10.096;2022-10-18T16:53:42;10.73;;;7.10;;
45548;SDS011;31270;48.328;10.096;2022-10-18T16:56:12;11.35;;;7.07;;
45548;SDS011;31270;48.328;10.096;2022-10-18T16:58:40;8.88;;;6.40;;
45548;SDS011;31270;48.328;10.096;2022-10-18T17:01:08;9.77;;;6.72;;
45548;SDS011;31270;48.328;10.096;2022-10-18T17:03:38;7.63;;;5.65;;
45548;SDS011;31270;48.328;10.096;2022-10-18T17:06:04;9.20;;;6.70;;
45548;SDS011;31270;48.328;10.096;2022-10-18T17:08:30;8.43;;;6.53;;
45548;SDS011;31270;48.328;10.096;2022-10-18T17:10:56;21.08;;;13.65;;
45548;SDS011;31270;48.328;10.096;2022-10-18T17:13:23;14.55;;;11.02;;
45548;SDS011;31270;48.328;10.096;2022-10-18T17:15:49;22.02;;;17.05;;
45548;SDS011;31270;48.328;10.096;2022-10-18T17:18:17;35.35;;;25.15;;
45548;SDS011;31270;48.328;10.096;2022-10-18T17:20:46;38.25;;;28.23;;
45548;SDS011;31270;48.328;10.096;2022-10-18T17:23:12;33.88;;;22.92;;
45548;SDS011;31270;48.328;10.096;2022-10-18T17:25:39;35.28;;;24.00;;